KAQW/AQW METAR and TAF weather

Enter ICAO airport designator
Station Type Date Time Source
KAQW METAR 2020/10/22 02:52 UTC NOAA

KAQW 220252Z AUTO 29005KT 10SM OVC023 19/16 A3021 RMK AO2 RAB40E46 SLP229 P0000 60000 T01890156 51013


Station Type Date Time Source
KAQW Decoded METAR 2020/10/22 02:52 UTC NOAA

N ADAMS HARRIMAN-AND-WEST, MA, United States (KAQW) 42-42N 073-10W 201M
Oct 21, 2020 - 10:52 PM EDT / 2020.10.22 0252 UTC
Wind: from the WNW (290 degrees) at 6 MPH (5 KT):0
Visibility: 10 mile(s):0
Sky conditions: overcast
Precipitation last hour: A trace
Temperature: 66.0 F (18.9 C)
Dew Point: 60.1 F (15.6 C)
Relative Humidity: 81%
Pressure (altimeter): 30.21 in. Hg (1023 hPa)
Pressure tendency: 0.04 inches (1.3 hPa) higher than three hours ago
ob: KAQW 220252Z AUTO 29005KT 10SM OVC023 19/16 A3021 RMK AO2 RAB40E46 SLP229 P0000 60000 T01890156 51013
cycle: 3

Station Type Date Time Source
KAQW TAF UTC NOAA

Error!

Example: see airport list